Skip Navigation Links Skip Navigation Links

Current Weather

San Antonio Intl, San Antonio, Tex.

For information only: do not use for flight planning or navigation.
Latest weather
Observation time Tuesday, April 20, 2021 4:51 PM CDT
Local time Tuesday, April 20, 2021 5:18 PM CDT
Flight conditions Visual Meteorological Conditions
Winds
Wind speed calm
Visibility 10 mi.
Sky condition
Ceiling unlimited
Cloud layer scattered clouds 9,500 ft.
Temperature 83°F
Dewpoint 43°F
Altimeter 29.95 in.Hg
Derived measurements
Relative humidity 25%
Heat index 83°F
Density altitude 2446 ft.
Sea-level pressure 29.90 in.Hg
Remarks
Automated weather observing station with precipitation discriminator.
METAR KSAT 202151Z 00000KT 10SM SCT095 28/06 A2995 RMK AO2 SLP126 T02830061

Settings

Location code

InnerDrive.Weather 4.0.6770.0 Release CLR 4.0.30319.42000
Copyright ©2018 Inner Drive Technology. All rights reserved. Portions Copyright ©1986-2018 David Braverman.

Find weather

Site navigation


Skip Navigation Links

Place info

Page info

PayPal - The safer, easier way to pay online!

Return home.

Copyright ©2021 Inner Drive Technology. Purveyors of fine, hand-crafted computer software. Page printed 2021-04-20T22:18:31 UTC.